createdAt,value
2023-02-21T00:00:39.735Z,70.48
2023-02-21T00:03:42.467Z,70.53
2023-02-21T00:06:30.036Z,70.65
2023-02-21T00:09:17.683Z,70.62
2023-02-21T00:12:05.434Z,70.74
2023-02-21T00:14:53.435Z,70.84
2023-02-21T00:17:41.422Z,70.76
2023-02-21T00:20:29.221Z,70.87
2023-02-21T00:23:17.123Z,70.93
2023-02-21T00:26:04.738Z,70.93
2023-02-21T00:28:52.558Z,70.97
2023-02-21T00:31:40.122Z,70.96
2023-02-21T00:34:28.282Z,71.21
2023-02-21T00:37:15.952Z,71.29
2023-02-21T00:40:03.573Z,71.31
2023-02-21T00:42:51.447Z,71.34
2023-02-21T00:45:39.201Z,71.34
2023-02-21T00:48:26.793Z,71.35
2023-02-21T00:51:14.610Z,71.55
2023-02-21T00:54:02.321Z,71.72
2023-02-21T00:56:50.068Z,71.98
2023-02-21T00:59:37.745Z,71.85
2023-02-21T01:02:26.307Z,71.88
2023-02-21T01:05:13.711Z,71.92
2023-02-21T01:08:01.611Z,71.85
2023-02-21T01:10:49.120Z,71.89
2023-02-21T01:13:37.110Z,72.09
2023-02-21T01:16:26.298Z,72.20
2023-02-21T01:19:14.526Z,72.25
2023-02-21T01:22:02.356Z,72.27
2023-02-21T01:24:50.215Z,72.39
2023-02-21T01:27:37.804Z,72.36
2023-02-21T01:30:25.677Z,72.57
2023-02-21T01:33:13.160Z,72.56
2023-02-21T01:36:02.450Z,72.71
2023-02-21T01:38:55.436Z,72.53
2023-02-21T01:41:43.305Z,72.65
2023-02-21T01:44:52.552Z,72.73
2023-02-21T01:47:40.470Z,72.71
2023-02-21T01:50:37.506Z,73.04
2023-02-21T01:53:48.632Z,73.11
2023-02-21T01:56:35.944Z,73.16
2023-02-21T01:59:23.762Z,73.14
2023-02-21T02:02:29.371Z,73.48
2023-02-21T02:05:19.163Z,73.43
2023-02-21T02:08:07.267Z,73.87
2023-02-21T02:10:54.935Z,73.84
2023-02-21T02:13:34.125Z,73.80
2023-02-21T02:16:13.999Z,74.08
2023-02-21T02:18:57.121Z,74.18
2023-02-21T02:22:03.887Z,74.31
2023-02-21T02:25:06.418Z,74.17
2023-02-21T02:27:48.341Z,74.25
2023-02-21T02:30:42.389Z,74.44
2023-02-21T02:33:33.025Z,74.54
2023-02-21T02:36:13.773Z,74.54
2023-02-21T02:39:04.148Z,74.63
2023-02-21T02:42:06.846Z,74.62
2023-02-21T02:44:49.293Z,74.63
2023-02-21T02:47:25.898Z,74.63
2023-02-21T02:49:56.128Z,75.07
2023-02-21T02:52:25.424Z,75.05
2023-02-21T02:55:03.127Z,74.98
2023-02-21T02:57:41.458Z,74.72
2023-02-21T03:00:11.358Z,74.88
2023-02-21T03:02:55.934Z,74.70
2023-02-21T03:05:36.652Z,74.89
2023-02-21T03:08:46.443Z,74.74
2023-02-21T03:11:21.057Z,74.74
2023-02-21T03:14:00.803Z,74.99
2023-02-21T03:16:37.195Z,74.88
2023-02-21T03:19:20.867Z,74.96
2023-02-21T03:21:54.321Z,75.06
2023-02-21T03:24:25.701Z,75.06
2023-02-21T03:27:00.188Z,75.04
2023-02-21T03:29:48.862Z,75.26
2023-02-21T03:32:31.734Z,75.15
2023-02-21T03:35:01.529Z,75.21
2023-02-21T03:37:37.459Z,75.25
2023-02-21T03:40:16.347Z,75.42
2023-02-21T03:42:48.846Z,75.37
2023-02-21T03:45:19.727Z,75.28
2023-02-21T03:48:00.443Z,75.36
2023-02-21T03:50:29.453Z,75.40
2023-02-21T03:52:58.300Z,75.53
2023-02-21T03:55:27.444Z,75.39
2023-02-21T03:57:56.694Z,75.43
2023-02-21T04:00:25.660Z,75.60
2023-02-21T04:02:56.073Z,75.62
2023-02-21T04:05:37.382Z,75.80
2023-02-21T04:08:06.450Z,76.03
2023-02-21T04:10:40.599Z,75.87
2023-02-21T04:13:12.751Z,75.75
2023-02-21T04:15:45.022Z,75.71
2023-02-21T04:18:14.766Z,75.95
2023-02-21T04:20:43.921Z,75.82
2023-02-21T04:23:21.296Z,75.96
2023-02-21T04:25:50.778Z,76.04
2023-02-21T04:28:55.687Z,75.85
2023-02-21T04:31:24.748Z,76.10
2023-02-21T04:34:05.810Z,76.04
2023-02-21T04:36:41.045Z,76.05
2023-02-21T04:39:10.052Z,76.09
2023-02-21T04:41:39.426Z,76.20
2023-02-21T04:44:08.944Z,76.07
2023-02-21T04:46:37.864Z,76.21
2023-02-21T04:49:14.021Z,76.38
2023-02-21T04:51:42.702Z,76.32
2023-02-21T04:54:13.887Z,76.54
2023-02-21T04:56:44.187Z,76.47
2023-02-21T04:59:13.191Z,76.56
2023-02-21T05:01:41.787Z,76.55
2023-02-21T05:04:11.394Z,76.37
2023-02-21T05:06:40.098Z,76.42
2023-02-21T05:09:08.612Z,76.62
2023-02-21T05:11:37.828Z,76.66
2023-02-21T05:14:06.483Z,76.77
2023-02-21T05:16:35.175Z,76.63
2023-02-21T05:19:04.584Z,76.90
2023-02-21T05:21:37.832Z,76.88
2023-02-21T05:24:07.680Z,76.73
2023-02-21T05:26:38.576Z,76.68
2023-02-21T05:29:07.426Z,76.66
2023-02-21T05:31:36.595Z,76.69
2023-02-21T05:34:05.305Z,76.85
2023-02-21T05:36:33.953Z,76.94
2023-02-21T05:39:04.774Z,76.96
2023-02-21T05:41:33.415Z,76.96
2023-02-21T05:44:03.002Z,76.97
2023-02-21T05:46:35.205Z,77.22
2023-02-21T05:49:05.732Z,77.14
2023-02-21T05:51:39.986Z,77.06
2023-02-21T05:54:10.599Z,77.13
2023-02-21T05:56:44.122Z,77.14
2023-02-21T05:59:14.781Z,77.29
2023-02-21T06:01:44.174Z,77.28
2023-02-21T06:04:13.212Z,77.29
2023-02-21T06:06:42.529Z,77.35
2023-02-21T06:09:11.886Z,77.44
2023-02-21T06:11:41.107Z,77.35
2023-02-21T06:14:18.268Z,77.47
2023-02-21T06:16:48.840Z,77.55
2023-02-21T06:19:18.451Z,77.64
2023-02-21T06:21:47.157Z,77.73
2023-02-21T06:24:17.653Z,77.81
2023-02-21T06:26:46.348Z,77.72
2023-02-21T06:29:15.055Z,77.73
2023-02-21T06:31:44.142Z,77.78
2023-02-21T06:34:13.084Z,77.87
2023-02-21T06:36:41.806Z,77.91
2023-02-21T06:39:11.313Z,77.77
2023-02-21T06:41:40.242Z,77.85
2023-02-21T06:44:08.938Z,77.88
2023-02-21T06:46:39.022Z,78.18
2023-02-21T06:49:08.103Z,78.24
2023-02-21T06:51:38.534Z,78.17
2023-02-21T06:54:10.770Z,78.11
2023-02-21T06:56:39.732Z,78.20
2023-02-21T06:59:09.097Z,78.17
2023-02-21T07:01:38.474Z,78.49
2023-02-21T07:04:07.171Z,78.37
2023-02-21T07:06:35.887Z,78.47
2023-02-21T07:09:05.165Z,78.46
2023-02-21T07:11:35.554Z,78.59
2023-02-21T07:14:05.843Z,78.56
2023-02-21T07:16:34.613Z,78.57
2023-02-21T07:19:03.481Z,78.71
2023-02-21T07:21:32.494Z,78.66
2023-02-21T07:24:01.570Z,78.68
2023-02-21T07:26:30.306Z,78.77
2023-02-21T07:28:59.206Z,78.72
2023-02-21T07:31:28.159Z,78.74
2023-02-21T07:33:56.861Z,78.93
2023-02-21T07:36:25.521Z,78.99
2023-02-21T07:38:55.153Z,78.94
2023-02-21T07:41:23.673Z,78.93
2023-02-21T07:43:52.723Z,78.99
2023-02-21T07:46:26.108Z,78.92
2023-02-21T07:48:55.139Z,78.95
2023-02-21T07:51:30.018Z,79.12
2023-02-21T07:53:58.982Z,79.30
2023-02-21T07:56:27.899Z,79.20
2023-02-21T07:58:56.577Z,79.27
2023-02-21T08:01:27.281Z,79.30
2023-02-21T08:03:57.356Z,79.49
2023-02-21T08:06:26.037Z,79.36
2023-02-21T08:08:55.216Z,79.38
2023-02-21T08:11:24.623Z,79.49
2023-02-21T08:13:53.775Z,79.51
2023-02-21T08:16:22.834Z,79.64
2023-02-21T08:18:51.744Z,79.70
2023-02-21T08:21:20.569Z,79.69
2023-02-21T08:23:49.548Z,79.70
2023-02-21T08:26:18.779Z,79.47
2023-02-21T08:28:49.265Z,79.64
2023-02-21T08:31:18.387Z,79.72
2023-02-21T08:33:47.613Z,79.88
2023-02-21T08:36:16.277Z,79.88
2023-02-21T08:38:45.172Z,79.77
2023-02-21T08:41:14.504Z,79.91
2023-02-21T08:43:43.353Z,80.14
2023-02-21T08:46:12.262Z,80.06
2023-02-21T08:48:49.764Z,79.85
2023-02-21T08:51:20.470Z,79.99
2023-02-21T08:53:55.006Z,79.70
2023-02-21T08:56:25.252Z,79.82
2023-02-21T08:58:55.375Z,80.24
2023-02-21T09:01:32.250Z,80.39
2023-02-21T09:04:02.549Z,80.50
2023-02-21T09:07:01.806Z,80.31
2023-02-21T09:09:38.628Z,79.82
2023-02-21T09:12:08.990Z,79.60
2023-02-21T09:14:40.227Z,79.69
2023-02-21T09:17:11.307Z,79.76
2023-02-21T09:19:40.505Z,79.84
2023-02-21T09:22:10.328Z,79.69
2023-02-21T09:24:39.711Z,79.62
2023-02-21T09:27:08.609Z,79.47
2023-02-21T09:29:46.058Z,79.34
2023-02-21T09:32:15.698Z,79.38
2023-02-21T09:34:44.959Z,79.33
2023-02-21T09:37:13.620Z,78.92
2023-02-21T09:39:42.845Z,79.04
2023-02-21T09:42:19.891Z,79.10
2023-02-21T09:44:49.294Z,79.04
2023-02-21T09:47:39.206Z,78.84
2023-02-21T09:50:16.286Z,78.85
2023-02-21T09:52:45.953Z,78.76
2023-02-21T09:55:36.381Z,78.73
2023-02-21T09:58:16.632Z,78.60
2023-02-21T10:00:47.248Z,78.36
2023-02-21T10:03:31.931Z,78.21
2023-02-21T10:06:29.802Z,78.08
2023-02-21T10:09:07.011Z,78.11
2023-02-21T10:11:39.199Z,77.75
2023-02-21T10:14:15.907Z,77.77
2023-02-21T10:16:55.439Z,77.97
2023-02-21T10:19:39.315Z,77.95
2023-02-21T10:22:20.394Z,77.85
2023-02-21T10:24:50.630Z,77.56
2023-02-21T10:27:26.725Z,77.63
2023-02-21T10:30:02.113Z,77.79
2023-02-21T10:32:32.723Z,77.65
2023-02-21T10:35:01.606Z,77.61
2023-02-21T10:37:37.155Z,77.74
2023-02-21T10:40:44.803Z,77.35
2023-02-21T10:43:18.358Z,77.32
2023-02-21T10:46:09.593Z,77.42
2023-02-21T10:48:41.787Z,77.33
2023-02-21T10:51:14.689Z,77.10
2023-02-21T10:53:46.040Z,77.22
2023-02-21T10:56:20.863Z,77.42
2023-02-21T11:02:45.025Z,77.32
2023-02-21T11:05:24.479Z,77.30
2023-02-21T11:08:10.182Z,77.22
2023-02-21T11:10:43.695Z,77.15
2023-02-21T11:13:22.324Z,77.04
2023-02-21T11:16:11.104Z,76.92
2023-02-21T11:18:40.857Z,76.93
2023-02-21T11:21:20.418Z,76.98
2023-02-21T11:24:05.362Z,76.85
2023-02-21T11:26:52.695Z,76.56
2023-02-21T11:29:26.180Z,76.59
2023-02-21T11:31:55.906Z,76.54
2023-02-21T11:34:29.812Z,76.51
2023-02-21T11:37:04.402Z,76.64
2023-02-21T11:39:34.231Z,76.43
2023-02-21T11:42:07.354Z,76.57
2023-02-21T11:44:39.181Z,76.65
2023-02-21T11:47:29.779Z,76.60
2023-02-21T11:50:08.899Z,76.47
2023-02-21T11:53:01.133Z,76.49
2023-02-21T11:55:35.494Z,76.33
2023-02-21T11:58:30.215Z,76.44
2023-02-21T12:01:17.928Z,76.42
2023-02-21T12:04:10.268Z,76.32
2023-02-21T12:06:57.287Z,76.25
2023-02-21T12:09:48.181Z,76.41
2023-02-21T12:12:36.073Z,76.40
2023-02-21T12:15:10.973Z,76.24
2023-02-21T12:18:05.551Z,76.10
2023-02-21T12:21:01.298Z,76.22
2023-02-21T12:23:55.027Z,76.27
2023-02-21T12:26:46.193Z,76.25
2023-02-21T12:29:36.465Z,76.17
2023-02-21T12:32:11.888Z,76.14
2023-02-21T12:35:00.975Z,76.20
2023-02-21T12:37:56.323Z,76.13
2023-02-21T12:40:37.949Z,76.10
2023-02-21T12:43:38.190Z,76.08
2023-02-21T12:46:28.215Z,75.89
2023-02-21T12:49:12.422Z,75.85
2023-02-21T12:52:15.588Z,75.95
2023-02-21T12:55:03.647Z,76.04
2023-02-21T12:57:57.894Z,75.83
2023-02-21T13:00:37.275Z,75.81
2023-02-21T13:03:57.284Z,75.94
2023-02-21T13:06:36.145Z,75.81
2023-02-21T13:09:23.249Z,75.83
2023-02-21T13:12:01.746Z,75.75
2023-02-21T13:14:42.124Z,75.61
2023-02-21T13:17:16.918Z,75.59
2023-02-21T13:19:56.247Z,75.70
2023-02-21T13:23:21.699Z,75.60
2023-02-21T13:31:01.576Z,75.62
2023-02-21T13:33:44.975Z,75.56
2023-02-21T13:36:17.613Z,75.57
2023-02-21T13:38:58.496Z,75.40
2023-02-21T13:41:30.530Z,75.44
2023-02-21T13:44:01.333Z,75.46
2023-02-21T13:46:30.003Z,75.47
2023-02-21T13:49:51.699Z,75.57
2023-02-21T13:52:30.513Z,75.51
2023-02-21T13:55:23.295Z,75.39
2023-02-21T13:57:58.862Z,75.37
2023-02-21T14:00:30.998Z,75.47
2023-02-21T14:03:25.086Z,75.42
2023-02-21T14:05:57.193Z,75.35
2023-02-21T14:08:30.093Z,75.38
2023-02-21T14:11:06.522Z,75.30
2023-02-21T14:13:41.468Z,75.43
2023-02-21T14:16:10.527Z,75.24
2023-02-21T14:18:39.462Z,75.14
2023-02-21T14:21:27.264Z,75.27
2023-02-21T14:24:02.197Z,75.26
2023-02-21T14:26:41.907Z,75.01
2023-02-21T14:29:17.695Z,75.01
2023-02-21T14:31:50.997Z,75.08
2023-02-21T14:34:47.397Z,75.05
2023-02-21T14:37:37.543Z,75.17
2023-02-21T14:40:12.455Z,75.07
2023-02-21T14:43:05.526Z,75.05
2023-02-21T14:45:52.472Z,74.92
2023-02-21T14:48:27.460Z,74.96
2023-02-21T14:51:14.782Z,75.02
2023-02-21T14:53:43.903Z,74.96
2023-02-21T14:56:51.544Z,74.90
2023-02-21T14:59:27.704Z,74.98
2023-02-21T15:02:34.634Z,74.97
2023-02-21T15:05:20.659Z,74.77
2023-02-21T15:08:17.486Z,74.78
2023-02-21T15:10:50.521Z,74.45
2023-02-21T15:13:30.569Z,74.49
2023-02-21T15:16:05.759Z,74.67
2023-02-21T15:18:36.911Z,74.72
2023-02-21T15:21:11.421Z,74.60
2023-02-21T15:23:43.193Z,74.72
2023-02-21T15:26:24.960Z,74.91
2023-02-21T15:29:16.941Z,74.94
2023-02-21T15:31:54.639Z,74.79
2023-02-21T15:34:47.622Z,74.91
2023-02-21T15:37:21.572Z,74.90
2023-02-21T15:39:55.697Z,74.81
2023-02-21T15:42:27.028Z,74.84
2023-02-21T15:45:11.604Z,74.80
2023-02-21T15:47:40.819Z,74.78
2023-02-21T15:50:13.296Z,74.80
2023-02-21T15:52:49.455Z,74.76
2023-02-21T15:55:23.165Z,74.70
2023-02-21T15:58:07.631Z,74.74
2023-02-21T16:00:39.103Z,74.70
2023-02-21T16:03:38.439Z,74.88
2023-02-21T16:06:12.139Z,74.86
2023-02-21T16:09:04.706Z,74.87
2023-02-21T16:11:53.351Z,75.07
2023-02-21T16:15:04.290Z,75.04
2023-02-21T16:17:37.400Z,74.97
2023-02-21T16:20:07.152Z,75.15
2023-02-21T16:22:59.635Z,75.08
2023-02-21T16:25:30.412Z,75.08
2023-02-21T16:28:00.731Z,74.90
2023-02-21T16:30:30.854Z,74.90
2023-02-21T16:33:03.861Z,74.94
2023-02-21T16:35:33.973Z,74.99
2023-02-21T16:38:03.826Z,75.17
2023-02-21T16:40:35.164Z,74.98
2023-02-21T16:43:05.384Z,75.17
2023-02-21T16:45:37.257Z,75.14
2023-02-21T16:48:07.445Z,75.06
2023-02-21T16:50:40.287Z,75.11
2023-02-21T16:53:15.591Z,75.11
2023-02-21T16:55:45.573Z,75.12
2023-02-21T16:58:26.686Z,75.27
2023-02-21T17:01:04.128Z,75.38
2023-02-21T17:03:33.335Z,75.44
2023-02-21T17:06:24.176Z,75.43
2023-02-21T17:08:53.801Z,75.36
2023-02-21T17:11:22.796Z,75.39
2023-02-21T17:13:52.265Z,75.58
2023-02-21T17:16:21.856Z,75.50
2023-02-21T17:18:50.682Z,75.56
2023-02-21T17:21:19.451Z,75.52
2023-02-21T17:23:48.820Z,75.57
2023-02-21T17:26:18.211Z,75.55
2023-02-21T17:28:47.089Z,75.69
2023-02-21T17:31:19.187Z,75.74
2023-02-21T17:33:49.127Z,75.93
2023-02-21T17:36:20.081Z,75.81
2023-02-21T17:38:49.615Z,75.79
2023-02-21T17:41:19.761Z,75.89
2023-02-21T17:43:48.929Z,75.81
2023-02-21T17:46:20.019Z,75.79
2023-02-21T17:48:49.022Z,75.85
2023-02-21T17:51:26.209Z,75.91
2023-02-21T17:53:55.300Z,75.93
2023-02-21T17:56:25.037Z,75.87
2023-02-21T17:58:55.449Z,75.93
2023-02-21T18:01:25.755Z,75.87
2023-02-21T18:04:03.686Z,75.93
2023-02-21T18:06:54.558Z,76.06
2023-02-21T18:10:01.300Z,75.98
2023-02-21T18:12:53.022Z,76.05
2023-02-21T18:15:43.033Z,76.03
2023-02-21T18:18:34.128Z,76.04
2023-02-21T18:21:20.150Z,76.02
2023-02-21T18:24:14.240Z,75.97
2023-02-21T18:27:13.114Z,76.16
2023-02-21T18:30:06.790Z,76.28
2023-02-21T18:32:56.598Z,76.09
2023-02-21T18:35:47.252Z,76.11
2023-02-21T18:38:36.206Z,76.07
2023-02-21T18:41:25.392Z,76.05
2023-02-21T18:44:00.822Z,76.00
2023-02-21T18:46:31.198Z,76.19
2023-02-21T18:49:00.573Z,76.13
2023-02-21T18:51:29.199Z,76.15
2023-02-21T18:53:58.165Z,76.19
2023-02-21T18:56:27.218Z,76.08
2023-02-21T18:58:56.159Z,76.08
2023-02-21T19:01:27.657Z,76.16
2023-02-21T19:03:57.160Z,76.14
2023-02-21T19:06:25.899Z,76.12
2023-02-21T19:08:54.729Z,76.22
2023-02-21T19:11:24.086Z,76.23
2023-02-21T19:13:52.771Z,76.17
2023-02-21T19:16:23.045Z,76.17
2023-02-21T19:18:59.226Z,76.18
2023-02-21T19:21:28.346Z,76.30
2023-02-21T19:23:58.070Z,76.21
2023-02-21T19:26:31.084Z,76.28
2023-02-21T19:29:00.441Z,76.25
2023-02-21T19:31:29.489Z,76.26
2023-02-21T19:33:58.634Z,76.22
2023-02-21T19:36:27.859Z,76.17
2023-02-21T19:38:56.718Z,76.26
2023-02-21T19:41:26.451Z,76.39
2023-02-21T19:43:56.033Z,76.42
2023-02-21T19:46:27.800Z,76.48
2023-02-21T19:48:57.414Z,76.35
2023-02-21T19:51:28.755Z,76.33
2023-02-21T19:53:59.363Z,76.31
2023-02-21T19:56:28.600Z,76.35
2023-02-21T19:58:58.712Z,76.35
2023-02-21T20:01:30.985Z,76.43
2023-02-21T20:04:02.709Z,76.40
2023-02-21T20:06:35.667Z,76.29
2023-02-21T20:09:08.502Z,76.39
2023-02-21T20:11:40.505Z,76.50
2023-02-21T20:14:11.804Z,76.57
2023-02-21T20:16:42.613Z,76.62
2023-02-21T20:19:12.769Z,76.63
2023-02-21T20:21:41.410Z,76.61
2023-02-21T20:24:11.249Z,76.50
2023-02-21T20:26:41.113Z,76.54
2023-02-21T20:29:10.170Z,76.50
2023-02-21T20:31:39.780Z,76.54
2023-02-21T20:34:10.102Z,76.63
2023-02-21T20:36:42.726Z,76.62
2023-02-21T20:39:29.146Z,76.76
2023-02-21T20:42:01.203Z,76.83
2023-02-21T20:44:35.422Z,76.71
2023-02-21T20:47:06.213Z,76.99
2023-02-21T20:49:38.408Z,77.00
2023-02-21T20:52:07.397Z,76.82
2023-02-21T20:54:36.991Z,76.77
2023-02-21T20:57:05.792Z,76.82
2023-02-21T20:59:40.033Z,76.85
2023-02-21T21:02:09.658Z,76.86
2023-02-21T21:04:44.442Z,76.64
2023-02-21T21:07:20.242Z,76.66
2023-02-21T21:09:50.490Z,76.57
2023-02-21T21:12:21.444Z,76.56
2023-02-21T21:14:53.855Z,76.68
2023-02-21T21:17:48.422Z,76.67
2023-02-21T21:20:20.776Z,76.62
2023-02-21T21:22:50.298Z,76.67
2023-02-21T21:25:19.650Z,76.65
2023-02-21T21:27:49.514Z,76.69
2023-02-21T21:30:23.005Z,76.74
2023-02-21T21:32:52.337Z,76.75
2023-02-21T21:35:21.144Z,76.70
2023-02-21T21:37:50.193Z,76.81
2023-02-21T21:40:22.422Z,76.93
2023-02-21T21:42:52.585Z,76.87
2023-02-21T21:45:25.351Z,76.77
2023-02-21T21:48:01.616Z,76.93
2023-02-21T21:50:30.865Z,76.79
2023-02-21T21:52:59.450Z,76.80
2023-02-21T21:55:30.504Z,76.78
2023-02-21T21:58:00.323Z,76.81
2023-02-21T22:00:30.843Z,76.79
2023-02-21T22:03:02.503Z,76.64
2023-02-21T22:05:37.076Z,76.57
2023-02-21T22:08:06.173Z,76.59
2023-02-21T22:10:34.898Z,76.48
2023-02-21T22:13:13.935Z,76.52
2023-02-21T22:15:44.398Z,76.59
2023-02-21T22:18:18.729Z,76.62
2023-02-21T22:20:50.367Z,76.49
2023-02-21T22:23:24.816Z,76.61
2023-02-21T22:25:54.261Z,76.54
2023-02-21T22:28:23.090Z,76.70
2023-02-21T22:30:52.654Z,76.52
2023-02-21T22:33:22.893Z,76.63
2023-02-21T22:35:51.538Z,76.62
2023-02-21T22:38:20.288Z,76.93
2023-02-21T22:40:49.599Z,76.98
2023-02-21T22:43:20.371Z,76.97
2023-02-21T22:45:50.389Z,76.90
2023-02-21T22:48:21.281Z,76.75
2023-02-21T22:50:50.185Z,76.77
2023-02-21T22:53:20.170Z,76.92
2023-02-21T22:55:52.120Z,76.90
2023-02-21T22:58:22.286Z,76.79
2023-02-21T23:00:52.832Z,76.90
2023-02-21T23:03:21.694Z,76.77
2023-02-21T23:05:51.870Z,76.83
2023-02-21T23:08:23.810Z,76.89
2023-02-21T23:10:52.738Z,76.85
2023-02-21T23:13:23.928Z,76.76
2023-02-21T23:15:55.959Z,76.69
2023-02-21T23:18:26.437Z,76.88
2023-02-21T23:20:56.984Z,76.93
2023-02-21T23:23:28.575Z,76.81
2023-02-21T23:26:00.054Z,76.73
2023-02-21T23:28:30.807Z,76.62
2023-02-21T23:31:00.651Z,76.50
2023-02-21T23:33:30.574Z,76.63
2023-02-21T23:36:00.145Z,76.70
2023-02-21T23:38:30.501Z,76.57
2023-02-21T23:41:02.240Z,76.59
2023-02-21T23:43:36.285Z,76.58
2023-02-21T23:46:07.550Z,76.47
2023-02-21T23:48:37.926Z,76.38
2023-02-21T23:51:08.640Z,76.26
2023-02-21T23:53:38.232Z,76.20
2023-02-21T23:56:13.722Z,76.33
2023-02-21T23:58:46.104Z,76.25
